createdAt,value
2018-09-21T00:01:16.903Z,61.60
2018-09-21T00:03:50.885Z,62.00
2018-09-21T00:06:19.671Z,61.90
2018-09-21T00:08:48.151Z,62.00
2018-09-21T00:11:16.623Z,61.20
2018-09-21T00:13:45.065Z,61.10
2018-09-21T00:16:13.515Z,61.90
2018-09-21T00:18:42.069Z,62.30
2018-09-21T00:21:10.735Z,62.80
2018-09-21T00:23:39.526Z,63.20
2018-09-21T00:26:08.630Z,62.80
2018-09-21T00:28:37.201Z,64.30
2018-09-21T00:31:06.163Z,64.10
2018-09-21T00:33:34.784Z,63.90
2018-09-21T00:36:03.465Z,65.00
2018-09-21T00:38:32.076Z,64.30
2018-09-21T00:41:00.520Z,63.80
2018-09-21T00:43:29.105Z,63.90
2018-09-21T00:45:57.659Z,63.90
2018-09-21T00:48:26.170Z,64.80
2018-09-21T00:50:54.702Z,64.10
2018-09-21T00:53:23.192Z,64.80
2018-09-21T00:55:51.671Z,63.80
2018-09-21T00:58:20.140Z,64.90
2018-09-21T01:00:48.847Z,65.30
2018-09-21T01:03:17.228Z,65.50
2018-09-21T01:07:21.394Z,65.60
2018-09-21T01:09:49.881Z,65.70
2018-09-21T01:12:18.257Z,65.20
2018-09-21T01:14:46.698Z,65.50
2018-09-21T01:17:15.161Z,64.80
2018-09-21T01:19:43.685Z,65.20
2018-09-21T01:22:12.083Z,65.70
2018-09-21T01:24:40.545Z,65.30
2018-09-21T01:27:13.294Z,65.80
2018-09-21T01:29:41.787Z,65.90
2018-09-21T01:32:10.284Z,65.60
2018-09-21T01:34:38.730Z,65.80
2018-09-21T01:37:07.310Z,65.90
2018-09-21T01:39:35.742Z,66.00
2018-09-21T01:42:04.274Z,66.10
2018-09-21T01:44:32.706Z,66.30
2018-09-21T01:47:01.172Z,66.20
2018-09-21T01:49:29.584Z,65.90
2018-09-21T01:51:57.986Z,65.90
2018-09-21T01:54:26.485Z,66.80
2018-09-21T01:56:54.923Z,66.60
2018-09-21T01:59:23.423Z,66.70
2018-09-21T02:01:51.788Z,67.00
2018-09-21T02:04:24.603Z,66.60
2018-09-21T02:06:53.090Z,66.70
2018-09-21T02:09:21.484Z,67.30
2018-09-21T02:11:49.907Z,66.80
2018-09-21T02:14:18.313Z,67.40
2018-09-21T02:16:46.779Z,67.70
2018-09-21T02:19:15.231Z,67.30
2018-09-21T02:21:43.736Z,67.30
2018-09-21T02:24:12.164Z,67.30
2018-09-21T02:26:40.638Z,67.30
2018-09-21T02:29:09.062Z,67.80
2018-09-21T02:31:37.450Z,67.60
2018-09-21T02:34:05.924Z,67.60
2018-09-21T02:36:34.287Z,67.10
2018-09-21T02:39:02.873Z,67.40
2018-09-21T02:41:31.317Z,67.80
2018-09-21T02:43:59.828Z,67.10
2018-09-21T02:46:28.288Z,67.10
2018-09-21T02:48:56.669Z,66.80
2018-09-21T02:51:25.063Z,67.20
2018-09-21T02:53:53.469Z,67.30
2018-09-21T02:56:21.967Z,67.70
2018-09-21T02:58:50.550Z,67.20
2018-09-21T03:01:19.239Z,67.80
2018-09-21T03:03:47.687Z,67.70
2018-09-21T03:06:16.095Z,67.90
2018-09-21T03:08:44.547Z,67.50
2018-09-21T03:11:13.175Z,67.50
2018-09-21T03:13:41.821Z,67.90
2018-09-21T03:16:10.263Z,67.30
2018-09-21T03:18:38.807Z,67.40
2018-09-21T03:21:07.341Z,68.00
2018-09-21T03:23:35.797Z,66.40
2018-09-21T03:26:04.208Z,66.70
2018-09-21T03:28:32.597Z,67.30
2018-09-21T03:31:01.091Z,67.40
2018-09-21T03:33:29.598Z,67.80
2018-09-21T03:35:58.068Z,68.00
2018-09-21T03:38:26.427Z,68.00
2018-09-21T03:40:54.835Z,68.30
2018-09-21T03:43:23.307Z,68.70
2018-09-21T03:45:51.758Z,68.00
2018-09-21T03:48:20.578Z,68.20
2018-09-21T03:50:48.961Z,68.10
2018-09-21T03:53:17.423Z,68.10
2018-09-21T03:55:46.020Z,67.20
2018-09-21T03:58:14.518Z,67.70
2018-09-21T04:00:42.920Z,67.70
2018-09-21T04:03:11.370Z,67.30
2018-09-21T04:05:39.830Z,66.70
2018-09-21T04:08:08.302Z,66.90
2018-09-21T04:10:36.708Z,66.50
2018-09-21T04:13:05.201Z,66.40
2018-09-21T04:15:33.647Z,66.20
2018-09-21T04:18:02.157Z,66.60
2018-09-21T04:20:30.713Z,67.20
2018-09-21T04:23:03.033Z,66.70
2018-09-21T04:25:32.564Z,66.70
2018-09-21T04:28:01.120Z,66.30
2018-09-21T04:30:29.757Z,66.40
2018-09-21T04:32:58.633Z,67.10
2018-09-21T04:35:27.416Z,66.90
2018-09-21T04:37:55.795Z,66.80
2018-09-21T04:40:24.185Z,67.10
2018-09-21T04:42:52.601Z,67.40
2018-09-21T04:45:21.061Z,67.50
2018-09-21T04:47:49.539Z,66.80
2018-09-21T04:50:18.034Z,67.50
2018-09-21T04:52:46.570Z,67.90
2018-09-21T04:55:15.032Z,67.70
2018-09-21T04:57:43.409Z,67.80
2018-09-21T05:00:11.798Z,67.20
2018-09-21T05:02:40.256Z,67.80
2018-09-21T05:05:08.664Z,66.40
2018-09-21T05:07:37.013Z,67.40
2018-09-21T05:10:05.784Z,67.40
2018-09-21T05:12:34.216Z,67.40
2018-09-21T05:15:02.624Z,67.40
2018-09-21T05:17:31.044Z,67.60
2018-09-21T05:19:59.460Z,67.20
2018-09-21T05:22:27.862Z,67.20
2018-09-21T05:24:56.393Z,67.40
2018-09-21T05:27:24.862Z,67.20
2018-09-21T05:29:53.447Z,67.30
2018-09-21T05:32:21.940Z,67.80
2018-09-21T05:34:50.347Z,67.60
2018-09-21T05:37:18.892Z,68.20
2018-09-21T05:39:47.348Z,67.40
2018-09-21T05:42:15.723Z,67.60
2018-09-21T05:44:44.099Z,67.60
2018-09-21T05:47:12.614Z,67.40
2018-09-21T05:49:41.185Z,67.40
2018-09-21T05:52:10.155Z,67.40
2018-09-21T05:54:38.531Z,67.50
2018-09-21T05:57:07.024Z,67.50
2018-09-21T05:59:35.475Z,67.20
2018-09-21T06:02:04.204Z,66.90
2018-09-21T06:04:32.628Z,66.90
2018-09-21T06:07:01.109Z,66.90
2018-09-21T06:09:29.558Z,67.00
2018-09-21T06:11:57.988Z,67.40
2018-09-21T06:14:26.631Z,66.80
2018-09-21T06:16:55.045Z,67.00
2018-09-21T06:19:23.605Z,67.10
2018-09-21T06:21:52.192Z,67.00
2018-09-21T06:24:20.640Z,67.20
2018-09-21T06:26:49.158Z,67.40
2018-09-21T06:29:17.611Z,67.20
2018-09-21T06:31:46.016Z,67.30
2018-09-21T06:34:14.478Z,67.30
2018-09-21T06:36:42.946Z,66.90
2018-09-21T06:39:12.241Z,67.60
2018-09-21T06:41:40.666Z,67.60
2018-09-21T06:44:09.503Z,67.70
2018-09-21T06:46:38.015Z,67.80
2018-09-21T06:49:06.534Z,68.00
2018-09-21T06:51:35.035Z,67.70
2018-09-21T06:54:03.627Z,68.30
2018-09-21T06:56:32.049Z,68.10
2018-09-21T06:59:00.480Z,68.20
2018-09-21T07:01:28.976Z,68.30
2018-09-21T07:03:57.634Z,68.60
2018-09-21T07:06:26.146Z,68.50
2018-09-21T07:08:54.588Z,68.30
2018-09-21T07:11:23.068Z,67.70
2018-09-21T07:13:51.777Z,68.60
2018-09-21T07:16:20.221Z,68.90
2018-09-21T07:18:48.672Z,68.50
2018-09-21T07:21:17.121Z,68.70
2018-09-21T07:23:45.570Z,69.30
2018-09-21T07:26:14.009Z,69.20
2018-09-21T07:28:42.485Z,69.00
2018-09-21T07:31:10.908Z,69.20
2018-09-21T07:33:39.393Z,69.40
2018-09-21T07:36:07.899Z,69.40
2018-09-21T07:38:36.244Z,69.10
2018-09-21T07:41:04.996Z,69.10
2018-09-21T07:43:33.478Z,69.20
2018-09-21T07:46:01.978Z,69.20
2018-09-21T07:48:30.446Z,69.00
2018-09-21T07:50:58.897Z,68.40
2018-09-21T07:53:27.335Z,68.20
2018-09-21T07:55:55.736Z,68.10
2018-09-21T07:58:24.180Z,67.70
2018-09-21T08:00:52.630Z,67.30
2018-09-21T08:03:21.046Z,66.90
2018-09-21T08:05:49.721Z,66.70
2018-09-21T08:08:18.301Z,66.30
2018-09-21T08:10:46.713Z,65.50
2018-09-21T08:13:15.163Z,65.50
2018-09-21T08:15:43.842Z,65.40
2018-09-21T08:18:12.329Z,65.10
2018-09-21T08:20:40.772Z,65.50
2018-09-21T08:23:09.250Z,65.50
2018-09-21T08:25:37.722Z,65.10
2018-09-21T08:28:06.227Z,65.10
2018-09-21T08:30:34.694Z,64.80
2018-09-21T08:33:03.138Z,64.80
2018-09-21T08:35:31.654Z,64.70
2018-09-21T08:38:00.055Z,64.70
2018-09-21T08:40:28.586Z,64.30
2018-09-21T08:42:57.034Z,64.00
2018-09-21T08:45:25.635Z,64.10
2018-09-21T08:47:54.254Z,63.40
2018-09-21T08:50:22.685Z,62.70
2018-09-21T08:52:51.099Z,62.30
2018-09-21T08:55:19.742Z,62.80
2018-09-21T08:57:48.290Z,62.40
2018-09-21T09:00:17.072Z,63.20
2018-09-21T09:02:45.517Z,63.70
2018-09-21T09:05:14.064Z,64.10
2018-09-21T09:07:42.537Z,63.90
2018-09-21T09:10:10.964Z,62.90
2018-09-21T09:12:39.503Z,62.80
2018-09-21T09:15:07.918Z,62.80
2018-09-21T09:17:36.314Z,61.90
2018-09-21T09:20:04.725Z,61.10
2018-09-21T09:22:33.242Z,61.70
2018-09-21T09:25:01.697Z,62.90
2018-09-21T09:27:30.353Z,62.70
2018-09-21T09:29:58.919Z,62.60
2018-09-21T09:32:27.504Z,62.10
2018-09-21T09:34:55.893Z,61.50
2018-09-21T09:37:24.357Z,61.60
2018-09-21T09:39:52.819Z,60.60
2018-09-21T09:42:21.206Z,61.30
2018-09-21T09:44:49.684Z,60.70
2018-09-21T09:47:18.115Z,61.40
2018-09-21T09:49:46.567Z,61.70
2018-09-21T09:52:15.005Z,60.70
2018-09-21T09:54:43.505Z,61.90
2018-09-21T09:57:12.091Z,62.30
2018-09-21T09:59:40.484Z,61.20
2018-09-21T10:02:08.954Z,61.10
2018-09-21T10:04:37.410Z,60.80
2018-09-21T10:07:05.863Z,59.50
2018-09-21T10:09:34.278Z,59.50
2018-09-21T10:12:02.819Z,59.90
2018-09-21T10:14:31.329Z,59.80
2018-09-21T10:16:59.836Z,59.50
2018-09-21T10:19:28.212Z,59.40
2018-09-21T10:21:56.679Z,60.00
2018-09-21T10:24:25.204Z,59.70
2018-09-21T10:26:53.717Z,60.20
2018-09-21T10:29:22.383Z,60.50
2018-09-21T10:31:50.810Z,60.40
2018-09-21T10:34:19.353Z,60.80
2018-09-21T10:36:47.708Z,60.30
2018-09-21T10:39:16.193Z,60.70
2018-09-21T10:41:44.766Z,60.40
2018-09-21T10:44:13.238Z,60.00
2018-09-21T10:46:41.641Z,60.00
2018-09-21T10:49:10.112Z,60.40
2018-09-21T10:51:38.557Z,60.70
2018-09-21T10:54:07.049Z,60.60
2018-09-21T10:56:35.521Z,60.50
2018-09-21T10:59:04.008Z,60.30
2018-09-21T11:01:32.400Z,59.60
2018-09-21T11:04:00.843Z,59.70
2018-09-21T11:06:29.533Z,59.90
2018-09-21T11:08:58.022Z,59.60
2018-09-21T11:11:26.450Z,59.50
2018-09-21T11:13:54.874Z,59.10
2018-09-21T11:16:23.349Z,59.10
2018-09-21T11:18:51.832Z,58.90
2018-09-21T11:21:20.275Z,59.00
2018-09-21T11:23:48.676Z,59.60
2018-09-21T11:26:17.141Z,59.50
2018-09-21T11:28:45.510Z,59.90
2018-09-21T11:31:13.984Z,59.30
2018-09-21T11:33:42.332Z,59.30
2018-09-21T11:36:10.814Z,59.70
2018-09-21T11:38:39.288Z,59.70
2018-09-21T11:41:07.777Z,59.80
2018-09-21T11:43:36.456Z,59.50
2018-09-21T11:46:04.894Z,59.10
2018-09-21T11:48:33.538Z,58.20
2018-09-21T11:51:01.963Z,59.20
2018-09-21T11:53:30.394Z,58.60
2018-09-21T11:55:58.802Z,58.70
2018-09-21T11:58:27.263Z,58.70
2018-09-21T12:00:55.803Z,59.10
2018-09-21T12:03:24.245Z,58.60
2018-09-21T12:05:52.698Z,58.90
2018-09-21T12:08:21.131Z,58.70
2018-09-21T12:10:49.594Z,58.70
2018-09-21T12:13:18.034Z,58.60
2018-09-21T12:15:46.464Z,58.50
2018-09-21T12:18:14.916Z,58.70
2018-09-21T12:20:43.378Z,59.20
2018-09-21T12:23:11.814Z,59.40
2018-09-21T12:25:40.236Z,58.80
2018-09-21T12:28:08.693Z,59.00
2018-09-21T12:30:37.069Z,58.80
2018-09-21T12:33:05.834Z,59.40
2018-09-21T12:35:34.255Z,59.20
2018-09-21T12:38:02.737Z,59.50
2018-09-21T12:40:31.114Z,59.30
2018-09-21T12:42:59.608Z,59.20
2018-09-21T12:45:28.272Z,59.50
2018-09-21T12:47:56.730Z,59.30
2018-09-21T12:50:25.194Z,60.00
2018-09-21T12:52:53.743Z,59.60
2018-09-21T12:55:22.182Z,59.50
2018-09-21T12:57:50.673Z,59.50
2018-09-21T13:00:19.157Z,59.60
2018-09-21T13:02:47.647Z,59.70
2018-09-21T13:05:16.269Z,59.70
2018-09-21T13:07:44.817Z,59.90
2018-09-21T13:10:13.276Z,60.10
2018-09-21T13:12:41.752Z,60.10
2018-09-21T13:15:10.540Z,60.10
2018-09-21T13:17:39.057Z,60.50
2018-09-21T13:20:07.702Z,60.10
2018-09-21T13:22:36.186Z,60.10
2018-09-21T13:25:05.034Z,60.40
2018-09-21T13:27:33.484Z,60.30
2018-09-21T13:30:01.931Z,60.40
2018-09-21T13:32:30.297Z,60.50
2018-09-21T13:34:58.766Z,60.50
2018-09-21T13:37:27.166Z,60.40
2018-09-21T13:39:55.642Z,60.60
2018-09-21T13:42:24.122Z,60.50
2018-09-21T13:44:52.486Z,60.70
2018-09-21T13:47:20.977Z,60.00
2018-09-21T13:49:49.408Z,60.00
2018-09-21T13:52:17.767Z,60.40
2018-09-21T13:54:46.217Z,60.60
2018-09-21T13:57:14.696Z,60.60
2018-09-21T13:59:43.060Z,60.70
2018-09-21T14:02:11.533Z,60.70
2018-09-21T14:04:39.913Z,60.80
2018-09-21T14:07:08.362Z,61.00
2018-09-21T14:09:37.173Z,60.80
2018-09-21T14:12:05.693Z,60.90
2018-09-21T14:14:34.172Z,61.20
2018-09-21T14:17:02.541Z,61.40
2018-09-21T14:19:30.987Z,61.70
2018-09-21T14:21:59.516Z,61.60
2018-09-21T14:24:27.888Z,62.00
2018-09-21T14:26:56.382Z,61.90
2018-09-21T14:29:25.020Z,62.20
2018-09-21T14:31:53.510Z,62.40
2018-09-21T14:34:22.012Z,62.10
2018-09-21T14:36:50.510Z,62.00
2018-09-21T14:39:18.928Z,62.10
2018-09-21T14:41:47.344Z,62.20
2018-09-21T14:44:15.835Z,62.30
2018-09-21T14:46:44.365Z,62.00
2018-09-21T14:49:12.801Z,61.60
2018-09-21T14:51:41.241Z,62.10
2018-09-21T14:54:09.703Z,62.80
2018-09-21T14:56:38.151Z,63.10
2018-09-21T14:59:06.562Z,63.40
2018-09-21T15:01:35.057Z,63.00
2018-09-21T15:04:03.509Z,63.30
2018-09-21T15:06:31.964Z,63.90
2018-09-21T15:09:00.477Z,63.60
2018-09-21T15:11:29.029Z,58.90
2018-09-21T15:13:57.506Z,59.00
2018-09-21T15:16:25.895Z,59.20
2018-09-21T15:18:54.386Z,59.10
2018-09-21T15:21:22.882Z,59.30
2018-09-21T15:23:51.846Z,59.60
2018-09-21T15:26:20.213Z,61.50
2018-09-21T15:28:48.721Z,64.10
2018-09-21T15:31:17.198Z,65.10
2018-09-21T15:33:45.652Z,65.40
2018-09-21T15:36:14.076Z,65.50
2018-09-21T15:38:42.533Z,65.60
2018-09-21T15:41:10.991Z,65.90
2018-09-21T15:43:39.706Z,66.30
2018-09-21T15:46:08.226Z,66.50
2018-09-21T15:48:36.662Z,66.30
2018-09-21T15:51:05.145Z,66.30
2018-09-21T15:53:33.678Z,67.20
2018-09-21T15:56:02.431Z,67.20
2018-09-21T15:58:31.475Z,67.10
2018-09-21T16:00:59.885Z,64.40
2018-09-21T16:03:28.371Z,62.70
2018-09-21T16:05:56.831Z,62.30
2018-09-21T16:08:25.358Z,62.30
2018-09-21T16:10:53.867Z,62.30
2018-09-21T16:13:22.298Z,60.80
2018-09-21T16:15:50.740Z,61.00
2018-09-21T16:18:19.137Z,61.30
2018-09-21T16:20:47.590Z,60.80
2018-09-21T16:23:16.024Z,61.50
2018-09-21T16:25:44.456Z,62.00
2018-09-21T16:28:12.944Z,62.50
2018-09-21T16:30:41.324Z,63.00
2018-09-21T16:33:10.406Z,62.40
2018-09-21T16:35:38.806Z,62.80
2018-09-21T16:38:07.366Z,63.10
2018-09-21T16:40:35.956Z,65.50
2018-09-21T16:43:04.447Z,66.30
2018-09-21T16:45:32.786Z,67.70
2018-09-21T16:48:01.249Z,67.50
2018-09-21T16:50:29.648Z,67.60
2018-09-21T16:52:58.035Z,67.30
2018-09-21T16:55:26.514Z,67.80
2018-09-21T16:57:54.899Z,67.60
2018-09-21T17:00:23.539Z,67.20
2018-09-21T17:02:51.921Z,66.70
2018-09-21T17:05:20.346Z,66.20
2018-09-21T17:07:48.870Z,65.80
2018-09-21T17:10:17.463Z,65.60
2018-09-21T17:12:45.885Z,64.20
2018-09-21T17:15:14.417Z,65.30
2018-09-21T17:17:42.867Z,65.40
2018-09-21T17:20:11.397Z,65.30
2018-09-21T17:22:39.997Z,65.40
2018-09-21T17:25:08.962Z,65.20
2018-09-21T17:27:37.488Z,64.70
2018-09-21T17:30:06.253Z,64.40
2018-09-21T17:32:34.732Z,63.90
2018-09-21T17:35:03.621Z,63.00
2018-09-21T17:37:32.087Z,62.00
2018-09-21T17:40:00.757Z,62.00
2018-09-21T17:42:29.247Z,62.30
2018-09-21T17:44:58.096Z,62.70
2018-09-21T17:47:26.491Z,62.20
2018-09-21T17:49:54.990Z,62.00
2018-09-21T17:52:23.455Z,61.80
2018-09-21T17:54:52.241Z,61.80
2018-09-21T17:57:20.701Z,61.50
2018-09-21T17:59:49.136Z,61.30
2018-09-21T18:02:17.626Z,60.20
2018-09-21T18:04:46.120Z,60.70
2018-09-21T18:07:19.093Z,60.90
2018-09-21T18:09:48.511Z,60.40
2018-09-21T18:12:16.866Z,61.10
2018-09-21T18:14:45.414Z,60.70
2018-09-21T18:17:13.860Z,60.20
2018-09-21T18:19:42.280Z,60.40
2018-09-21T18:22:11.216Z,60.70
2018-09-21T18:24:39.876Z,61.10
2018-09-21T18:27:08.585Z,61.00
2018-09-21T18:29:36.999Z,61.00
2018-09-21T18:32:05.563Z,60.80
2018-09-21T18:34:34.138Z,61.20
2018-09-21T18:37:02.526Z,60.70
2018-09-21T18:39:31.233Z,61.20
2018-09-21T18:41:59.839Z,60.90
2018-09-21T18:44:28.578Z,61.60
2018-09-21T18:46:57.074Z,61.70
2018-09-21T18:49:25.707Z,62.40
2018-09-21T18:51:54.128Z,62.60
2018-09-21T18:54:22.592Z,62.50
2018-09-21T18:56:51.065Z,62.30
2018-09-21T18:59:19.776Z,62.70
2018-09-21T19:01:48.318Z,62.90
2018-09-21T19:04:16.761Z,63.60
2018-09-21T19:06:45.211Z,63.20
2018-09-21T19:09:13.799Z,62.90
2018-09-21T19:11:42.397Z,63.70
2018-09-21T19:14:11.121Z,64.20
2018-09-21T19:16:39.654Z,64.20
2018-09-21T19:19:08.117Z,64.20
2018-09-21T19:21:37.138Z,64.10
2018-09-21T19:24:05.598Z,64.70
2018-09-21T19:26:34.005Z,64.80
2018-09-21T19:29:02.603Z,65.00
2018-09-21T19:31:31.038Z,64.80
2018-09-21T19:33:59.553Z,65.30
2018-09-21T19:36:28.006Z,65.00
2018-09-21T19:38:56.541Z,65.40
2018-09-21T19:41:25.034Z,65.70
2018-09-21T19:43:53.889Z,65.80
2018-09-21T19:46:22.414Z,65.50
2018-09-21T19:48:50.988Z,65.70
2018-09-21T19:51:19.409Z,65.80
2018-09-21T19:53:47.847Z,65.70
2018-09-21T19:56:16.334Z,65.80
2018-09-21T19:58:44.725Z,66.10
2018-09-21T20:01:13.214Z,66.10
2018-09-21T20:03:41.631Z,66.00
2018-09-21T20:06:11.767Z,66.10
2018-09-21T20:08:40.269Z,66.30
2018-09-21T20:11:08.752Z,66.40
2018-09-21T20:13:37.404Z,66.70
2018-09-21T20:16:06.208Z,66.80
2018-09-21T20:18:34.694Z,66.70
2018-09-21T20:21:03.202Z,66.70
2018-09-21T20:23:31.729Z,66.90
2018-09-21T20:26:00.162Z,66.90
2018-09-21T20:28:28.643Z,66.80
2018-09-21T20:32:01.733Z,66.80
2018-09-21T20:34:30.314Z,66.60
2018-09-21T20:36:58.850Z,67.00
2018-09-21T20:39:27.323Z,67.20
2018-09-21T20:41:55.896Z,66.70
2018-09-21T20:44:24.352Z,67.20
2018-09-21T20:46:52.867Z,66.80
2018-09-21T20:49:21.350Z,67.10
2018-09-21T20:51:49.778Z,67.00
2018-09-21T20:54:18.308Z,66.80
2018-09-21T20:56:46.720Z,66.50
2018-09-21T20:59:15.173Z,66.60
2018-09-21T21:01:43.814Z,66.70
2018-09-21T21:04:12.268Z,66.50
2018-09-21T21:06:40.729Z,66.70
2018-09-21T21:09:10.184Z,67.30
2018-09-21T21:11:38.672Z,66.60
2018-09-21T21:14:07.162Z,66.60
2018-09-21T21:16:36.670Z,66.40
2018-09-21T21:19:05.321Z,66.40
2018-09-21T21:21:33.696Z,66.60
2018-09-21T21:24:02.069Z,66.30
2018-09-21T21:26:30.516Z,66.20
2018-09-21T21:28:59.319Z,66.50
2018-09-21T21:31:27.771Z,66.70
2018-09-21T21:33:56.234Z,66.10
2018-09-21T21:36:24.696Z,66.30
2018-09-21T21:38:53.166Z,66.40
2018-09-21T21:41:21.608Z,66.50
2018-09-21T21:43:49.995Z,66.60
2018-09-21T21:46:18.479Z,66.30
2018-09-21T21:48:47.015Z,66.50
2018-09-21T21:51:15.515Z,66.50
2018-09-21T21:53:43.925Z,66.80
2018-09-21T21:56:12.358Z,66.90
2018-09-21T21:58:40.748Z,66.90
2018-09-21T22:01:14.540Z,67.50
2018-09-21T22:03:43.039Z,66.00
2018-09-21T22:06:11.447Z,66.30
2018-09-21T22:08:39.824Z,66.00
2018-09-21T22:11:13.501Z,65.60
2018-09-21T22:13:47.463Z,66.40
2018-09-21T22:16:15.978Z,66.60
2018-09-21T22:18:44.430Z,66.40
2018-09-21T22:21:12.862Z,67.10
2018-09-21T22:23:41.335Z,65.90
2018-09-21T22:26:09.847Z,65.90
2018-09-21T22:28:38.305Z,65.70
2018-09-21T22:31:06.800Z,65.70
2018-09-21T22:33:35.272Z,65.80
2018-09-21T22:36:03.688Z,65.80
2018-09-21T22:38:32.323Z,65.00
2018-09-21T22:41:00.750Z,65.20
2018-09-21T22:43:29.122Z,65.10
2018-09-21T22:45:57.529Z,65.00
2018-09-21T22:48:25.926Z,65.20
2018-09-21T22:50:54.270Z,65.10
2018-09-21T22:53:22.658Z,65.30
2018-09-21T22:55:51.106Z,65.30
2018-09-21T22:58:19.539Z,65.60
2018-09-21T23:00:47.923Z,65.50
2018-09-21T23:03:16.271Z,65.30
2018-09-21T23:05:44.733Z,65.30
2018-09-21T23:08:13.215Z,65.50
2018-09-21T23:10:41.600Z,65.40
2018-09-21T23:13:10.252Z,65.10
2018-09-21T23:15:38.649Z,65.40
2018-09-21T23:18:07.308Z,65.50
2018-09-21T23:20:35.782Z,65.60
2018-09-21T23:23:04.215Z,65.20
2018-09-21T23:25:32.675Z,65.20
2018-09-21T23:28:01.092Z,65.50
2018-09-21T23:30:29.539Z,65.20
2018-09-21T23:32:58.029Z,65.40
2018-09-21T23:35:26.472Z,65.60
2018-09-21T23:37:54.931Z,65.50
2018-09-21T23:40:23.344Z,65.60
2018-09-21T23:42:51.801Z,65.80
2018-09-21T23:45:20.268Z,66.50
2018-09-21T23:47:48.738Z,65.70
2018-09-21T23:50:17.191Z,65.60
2018-09-21T23:52:45.675Z,65.80
2018-09-21T23:55:14.170Z,65.50
2018-09-21T23:57:42.610Z,65.70
